createdAt,value
2023-05-22T00:02:30.235Z,5.17
2023-05-22T00:05:34.666Z,5.03
2023-05-22T00:08:37.213Z,5.20
2023-05-22T00:11:39.677Z,5.65
2023-05-22T00:14:41.966Z,5.65
2023-05-22T00:17:44.608Z,4.90
2023-05-22T00:20:46.984Z,4.55
2023-05-22T00:23:49.207Z,5.45
2023-05-22T00:26:51.457Z,5.28
2023-05-22T00:29:53.727Z,5.80
2023-05-22T00:32:56.857Z,5.47
2023-05-22T00:35:59.191Z,5.30
2023-05-22T00:39:01.537Z,4.95
2023-05-22T00:42:03.901Z,5.60
2023-05-22T00:45:06.867Z,5.20
2023-05-22T00:48:09.788Z,5.13
2023-05-22T00:51:13.016Z,5.22
2023-05-22T00:54:15.432Z,5.20
2023-05-22T00:57:18.001Z,4.80
2023-05-22T01:00:20.715Z,4.65
2023-05-22T01:03:27.050Z,4.83
2023-05-22T01:06:32.312Z,4.82
2023-05-22T01:09:34.695Z,4.80
2023-05-22T01:12:48.320Z,5.10
2023-05-22T01:16:08.672Z,4.50
2023-05-22T01:19:10.964Z,4.63
2023-05-22T01:22:40.957Z,4.68
2023-05-22T01:25:43.152Z,5.40
2023-05-22T01:28:48.438Z,4.70
2023-05-22T01:31:51.496Z,5.15
2023-05-22T01:34:55.403Z,5.13
2023-05-22T01:37:58.248Z,4.70
2023-05-22T01:41:01.340Z,4.82
2023-05-22T01:44:03.637Z,5.00
2023-05-22T01:47:06.149Z,4.95
2023-05-22T01:50:08.705Z,4.60
2023-05-22T01:53:38.241Z,4.70
2023-05-22T01:56:49.691Z,4.78
2023-05-22T01:59:54.680Z,5.05
2023-05-22T02:02:58.460Z,5.05
2023-05-22T02:06:04.828Z,4.60
2023-05-22T02:09:08.582Z,4.65
2023-05-22T02:12:14.086Z,4.68
2023-05-22T02:15:16.400Z,4.43
2023-05-22T02:18:18.703Z,3.75
2023-05-22T02:21:22.137Z,4.30
2023-05-22T02:24:24.390Z,5.13
2023-05-22T02:27:28.186Z,4.22
2023-05-22T02:30:30.431Z,4.80
2023-05-22T02:33:34.224Z,4.70
2023-05-22T02:36:37.350Z,4.40
2023-05-22T02:39:40.072Z,4.40
2023-05-22T02:42:42.299Z,4.82
2023-05-22T02:45:44.634Z,4.60
2023-05-22T02:48:46.921Z,4.53
2023-05-22T02:51:49.448Z,4.63
2023-05-22T02:54:51.796Z,4.70
2023-05-22T02:57:54.790Z,4.75
2023-05-22T03:00:57.171Z,4.50
2023-05-22T03:03:59.454Z,4.60
2023-05-22T03:07:01.852Z,4.27
2023-05-22T03:10:04.317Z,4.43
2023-05-22T03:13:06.570Z,4.30
2023-05-22T03:16:08.893Z,4.22
2023-05-22T03:19:15.901Z,4.78
2023-05-22T03:22:21.647Z,4.77
2023-05-22T03:25:24.094Z,4.25
2023-05-22T03:28:26.476Z,3.90
2023-05-22T03:31:31.508Z,3.92
2023-05-22T03:34:40.534Z,4.53
2023-05-22T03:37:45.331Z,3.53
2023-05-22T03:40:47.844Z,3.95
2023-05-22T03:43:50.193Z,3.83
2023-05-22T03:46:52.783Z,4.10
2023-05-22T03:49:55.120Z,3.85
2023-05-22T03:52:58.313Z,3.83
2023-05-22T03:56:00.602Z,3.40
2023-05-22T03:59:02.909Z,3.67
2023-05-22T04:02:05.578Z,3.80
2023-05-22T04:05:08.960Z,3.70
2023-05-22T04:08:11.268Z,3.80
2023-05-22T04:11:15.801Z,3.45
2023-05-22T04:14:18.145Z,3.78
2023-05-22T04:17:21.723Z,3.67
2023-05-22T04:20:24.096Z,3.70
2023-05-22T04:23:26.344Z,3.30
2023-05-22T04:26:33.265Z,4.00
2023-05-22T04:29:36.590Z,3.75
2023-05-22T04:32:38.841Z,3.70
2023-05-22T04:35:41.094Z,3.60
2023-05-22T04:38:44.797Z,3.97
2023-05-22T04:41:47.086Z,3.53
2023-05-22T04:44:49.424Z,3.47
2023-05-22T04:47:56.295Z,3.50
2023-05-22T04:50:58.765Z,3.50
2023-05-22T04:54:01.012Z,3.70
2023-05-22T04:57:04.937Z,3.65
2023-05-22T05:00:08.225Z,3.33
2023-05-22T05:03:12.611Z,3.80
2023-05-22T05:06:17.388Z,3.35
2023-05-22T05:09:19.764Z,3.20
2023-05-22T05:12:22.161Z,3.17
2023-05-22T05:15:24.626Z,3.00
2023-05-22T05:18:28.314Z,3.25
2023-05-22T05:21:31.600Z,3.13
2023-05-22T05:24:36.178Z,3.40
2023-05-22T05:27:39.093Z,3.33
2023-05-22T05:30:42.049Z,3.55
2023-05-22T05:34:03.127Z,3.20
2023-05-22T05:37:11.946Z,3.55
2023-05-22T05:40:14.414Z,3.50
2023-05-22T05:43:21.779Z,3.63
2023-05-22T05:46:26.057Z,3.70
2023-05-22T05:49:28.427Z,3.88
2023-05-22T05:52:33.074Z,3.53
2023-05-22T05:55:42.533Z,3.30
2023-05-22T05:58:49.255Z,3.50
2023-05-22T06:02:23.599Z,3.85
2023-05-22T06:05:34.390Z,3.42
2023-05-22T06:09:01.198Z,3.30
2023-05-22T06:12:12.963Z,3.40
2023-05-22T06:15:19.330Z,3.13
2023-05-22T06:18:21.713Z,3.53
2023-05-22T06:21:24.723Z,3.45
2023-05-22T06:24:27.472Z,3.10
2023-05-22T06:27:30.107Z,3.20
2023-05-22T06:33:43.528Z,3.22
2023-05-22T06:36:46.200Z,3.20
2023-05-22T06:39:49.721Z,3.38
2023-05-22T06:42:59.889Z,3.27
2023-05-22T06:46:28.801Z,3.40
2023-05-22T06:49:36.416Z,2.72
2023-05-22T06:52:39.257Z,3.17
2023-05-22T06:55:44.523Z,3.17
2023-05-22T06:58:53.698Z,3.10
2023-05-22T07:02:01.585Z,3.03
2023-05-22T07:05:13.076Z,3.30
2023-05-22T07:08:31.324Z,2.88
2023-05-22T07:11:34.269Z,2.90
2023-05-22T07:14:36.979Z,3.20
2023-05-22T07:17:41.862Z,3.22
2023-05-22T07:20:48.710Z,2.90
2023-05-22T07:23:54.442Z,2.75
2023-05-22T07:27:01.325Z,3.10
2023-05-22T07:30:04.243Z,2.97
2023-05-22T07:33:08.074Z,2.60
2023-05-22T07:36:10.721Z,2.85
2023-05-22T07:39:16.315Z,3.00
2023-05-22T07:42:19.138Z,2.90
2023-05-22T07:45:29.259Z,2.57
2023-05-22T07:48:34.926Z,2.53
2023-05-22T07:51:39.904Z,2.58
2023-05-22T07:54:45.617Z,2.83
2023-05-22T07:57:51.028Z,2.85
2023-05-22T08:01:02.915Z,2.73
2023-05-22T08:04:06.052Z,2.92
2023-05-22T08:07:08.704Z,2.55
2023-05-22T08:10:14.832Z,2.60
2023-05-22T08:13:18.826Z,3.30
2023-05-22T08:16:21.746Z,2.70
2023-05-22T08:19:24.234Z,2.83
2023-05-22T08:22:26.654Z,2.78
2023-05-22T08:25:29.018Z,2.78
2023-05-22T08:28:31.351Z,2.90
2023-05-22T08:31:34.418Z,3.10
2023-05-22T08:34:37.019Z,2.80
2023-05-22T08:37:39.758Z,2.80
2023-05-22T08:40:45.201Z,2.90
2023-05-22T08:43:48.706Z,2.72
2023-05-22T08:46:52.208Z,2.60
2023-05-22T08:49:55.552Z,2.58
2023-05-22T08:53:01.780Z,3.17
2023-05-22T08:56:08.568Z,2.70
2023-05-22T08:59:11.379Z,3.47
2023-05-22T09:02:14.104Z,2.97
2023-05-22T09:05:17.676Z,2.97
2023-05-22T09:08:21.224Z,3.15
2023-05-22T09:11:24.710Z,3.00
2023-05-22T09:14:27.195Z,3.20
2023-05-22T09:17:29.558Z,2.70
2023-05-22T09:20:36.113Z,2.97
2023-05-22T09:23:38.473Z,3.15
2023-05-22T09:26:40.967Z,3.20
2023-05-22T09:29:51.053Z,3.10
2023-05-22T09:32:53.475Z,3.13
2023-05-22T09:35:55.915Z,3.28
2023-05-22T09:39:00.002Z,3.13
2023-05-22T09:42:02.820Z,2.95
2023-05-22T09:45:05.365Z,3.08
2023-05-22T09:48:09.019Z,3.00
2023-05-22T09:51:12.359Z,3.00
2023-05-22T09:54:15.598Z,3.63
2023-05-22T09:57:19.691Z,3.40
2023-05-22T10:00:26.300Z,3.70
2023-05-22T10:03:31.544Z,3.10
2023-05-22T10:06:37.313Z,3.03
2023-05-22T10:09:40.846Z,3.22
2023-05-22T10:12:50.861Z,3.50
2023-05-22T10:15:53.404Z,3.10
2023-05-22T10:18:58.106Z,3.20
2023-05-22T10:22:00.735Z,3.00
2023-05-22T10:25:03.698Z,3.55
2023-05-22T10:28:07.116Z,3.15
2023-05-22T10:31:14.638Z,3.50
2023-05-22T10:34:41.876Z,3.27
2023-05-22T10:37:44.429Z,3.40
2023-05-22T10:40:48.240Z,2.90
2023-05-22T10:43:51.778Z,2.95
2023-05-22T10:46:54.237Z,3.45
2023-05-22T10:50:12.133Z,3.50
2023-05-22T10:53:23.639Z,3.13
2023-05-22T10:56:37.668Z,3.22
2023-05-22T10:59:41.831Z,3.25
2023-05-22T11:02:44.667Z,3.42
2023-05-22T11:05:55.148Z,3.60
2023-05-22T11:09:00.157Z,3.08
2023-05-22T11:12:17.963Z,3.45
2023-05-22T11:15:30.388Z,3.20
2023-05-22T11:18:32.750Z,4.00
2023-05-22T11:21:35.990Z,3.50
2023-05-22T11:24:39.694Z,3.35
2023-05-22T11:27:42.261Z,3.35
2023-05-22T11:30:44.889Z,3.40
2023-05-22T11:33:48.404Z,3.55
2023-05-22T11:36:52.247Z,3.60
2023-05-22T11:39:58.077Z,3.30
2023-05-22T11:43:00.746Z,3.30
2023-05-22T11:46:12.475Z,4.25
2023-05-22T11:49:14.918Z,3.88
2023-05-22T11:52:17.452Z,3.30
2023-05-22T11:55:19.919Z,3.10
2023-05-22T11:58:28.265Z,3.53
2023-05-22T12:01:30.655Z,3.33
2023-05-22T12:04:33.403Z,3.55
2023-05-22T12:07:35.922Z,3.13
2023-05-22T12:10:46.461Z,3.10
2023-05-22T12:13:52.240Z,3.05
2023-05-22T12:16:55.952Z,3.25
2023-05-22T12:19:59.216Z,3.40
2023-05-22T12:23:01.973Z,3.07
2023-05-22T12:26:08.799Z,3.20
2023-05-22T12:29:11.083Z,3.03
2023-05-22T12:32:13.684Z,3.00
2023-05-22T12:35:17.305Z,2.80
2023-05-22T12:38:27.058Z,3.40
2023-05-22T12:41:29.379Z,3.38
2023-05-22T12:44:31.713Z,3.05
2023-05-22T12:47:34.381Z,2.90
2023-05-22T12:50:36.998Z,3.40
2023-05-22T12:53:39.503Z,3.23
2023-05-22T12:56:41.984Z,3.28
2023-05-22T12:59:44.344Z,3.90
2023-05-22T13:02:46.882Z,3.40
2023-05-22T13:05:49.256Z,3.78
2023-05-22T13:08:51.513Z,3.40
2023-05-22T13:11:54.011Z,3.88
2023-05-22T13:14:56.333Z,3.67
2023-05-22T13:17:58.681Z,3.30
2023-05-22T13:21:01.056Z,3.70
2023-05-22T13:24:04.482Z,3.40
2023-05-22T13:27:07.364Z,3.28
2023-05-22T13:30:10.075Z,3.72
2023-05-22T13:33:13.616Z,3.60
2023-05-22T13:36:15.935Z,3.78
2023-05-22T13:39:18.282Z,3.60
2023-05-22T13:42:20.668Z,3.60
2023-05-22T13:45:22.983Z,3.90
2023-05-22T13:48:25.355Z,3.95
2023-05-22T13:51:27.652Z,3.70
2023-05-22T13:54:30.040Z,3.73
2023-05-22T13:57:32.431Z,3.70
2023-05-22T14:00:34.787Z,3.63
2023-05-22T14:03:37.123Z,3.58
2023-05-22T14:06:39.506Z,4.05
2023-05-22T14:09:42.550Z,3.90
2023-05-22T14:12:44.842Z,3.45
2023-05-22T14:15:47.159Z,4.07
2023-05-22T14:18:49.496Z,3.80
2023-05-22T14:21:51.975Z,4.75
2023-05-22T14:24:54.396Z,4.03
2023-05-22T14:27:56.676Z,3.65
2023-05-22T14:30:59.072Z,4.20
2023-05-22T14:34:01.418Z,3.63
2023-05-22T14:37:03.641Z,4.10
2023-05-22T14:40:06.411Z,3.70
2023-05-22T14:43:08.761Z,3.83
2023-05-22T14:46:11.388Z,4.00
2023-05-22T14:49:13.734Z,3.72
2023-05-22T14:52:16.036Z,4.30
2023-05-22T14:55:18.349Z,3.57
2023-05-22T14:58:20.592Z,3.85
2023-05-22T15:01:22.899Z,3.90
2023-05-22T15:04:25.480Z,3.58
2023-05-22T15:07:35.884Z,3.88
2023-05-22T15:10:46.748Z,3.60
2023-05-22T15:13:49.641Z,3.67
2023-05-22T15:16:51.917Z,4.18
2023-05-22T15:19:54.163Z,3.90
2023-05-22T15:22:56.435Z,3.97
2023-05-22T15:25:58.692Z,3.50
2023-05-22T15:29:04.240Z,3.50
2023-05-22T15:32:06.769Z,3.50
2023-05-22T15:35:10.507Z,4.10
2023-05-22T15:38:13.423Z,4.07
2023-05-22T15:41:16.098Z,3.77
2023-05-22T15:44:19.435Z,3.92
2023-05-22T15:47:21.705Z,3.63
2023-05-22T15:50:24.341Z,3.80
2023-05-22T15:53:26.731Z,3.70
2023-05-22T15:56:29.077Z,3.53
2023-05-22T15:59:31.346Z,3.70
2023-05-22T16:02:33.760Z,3.80
2023-05-22T16:05:36.748Z,3.83
2023-05-22T16:08:38.975Z,3.97
2023-05-22T16:11:41.259Z,4.00
2023-05-22T16:14:43.583Z,3.95
2023-05-22T16:17:46.514Z,4.32
2023-05-22T16:20:48.816Z,3.50
2023-05-22T16:23:51.123Z,4.00
2023-05-22T16:26:53.425Z,4.20
2023-05-22T16:29:55.820Z,3.70
2023-05-22T16:32:58.046Z,3.58
2023-05-22T16:36:00.336Z,3.70
2023-05-22T16:39:02.671Z,3.70
2023-05-22T16:42:05.060Z,3.93
2023-05-22T16:45:07.603Z,3.70
2023-05-22T16:48:09.887Z,4.30
2023-05-22T16:51:12.265Z,4.25
2023-05-22T16:54:14.496Z,3.80
2023-05-22T16:57:16.900Z,4.30
2023-05-22T17:00:19.622Z,4.10
2023-05-22T17:03:22.228Z,4.03
2023-05-22T17:06:24.767Z,3.97
2023-05-22T17:09:29.941Z,4.35
2023-05-22T17:12:32.224Z,4.27
2023-05-22T17:15:34.583Z,4.28
2023-05-22T17:18:37.816Z,4.60
2023-05-22T17:21:40.067Z,3.92
2023-05-22T17:24:42.411Z,4.07
2023-05-22T17:27:44.802Z,4.13
2023-05-22T17:30:47.239Z,3.90
2023-05-22T17:33:49.516Z,3.92
2023-05-22T17:36:51.825Z,5.93
2023-05-22T17:39:54.189Z,4.05
2023-05-22T17:42:58.485Z,4.50
2023-05-22T17:46:01.205Z,3.63
2023-05-22T17:49:03.474Z,4.30
2023-05-22T17:52:05.870Z,4.05
2023-05-22T17:55:08.738Z,4.13
2023-05-22T17:58:10.997Z,4.10
2023-05-22T18:01:13.301Z,3.60
2023-05-22T18:04:15.676Z,3.50
2023-05-22T18:07:19.302Z,3.10
2023-05-22T18:10:23.201Z,3.50
2023-05-22T18:13:25.568Z,3.83
2023-05-22T18:16:27.990Z,3.78
2023-05-22T18:19:30.799Z,4.13
2023-05-22T18:22:33.096Z,3.75
2023-05-22T18:25:35.608Z,3.85
2023-05-22T18:28:37.920Z,4.03
2023-05-22T18:31:40.162Z,4.00
2023-05-22T18:34:44.034Z,3.80
2023-05-22T18:37:48.594Z,4.13
2023-05-22T18:40:52.229Z,4.10
2023-05-22T18:43:54.597Z,3.90
2023-05-22T18:46:56.837Z,4.05
2023-05-22T18:49:59.116Z,4.20
2023-05-22T18:53:01.442Z,3.65
2023-05-22T18:56:03.794Z,3.90
2023-05-22T18:59:06.193Z,4.00
2023-05-22T19:02:08.487Z,4.18
2023-05-22T19:05:10.961Z,4.38
2023-05-22T19:08:13.358Z,4.07
2023-05-22T19:11:15.661Z,4.45
2023-05-22T19:14:17.928Z,4.33
2023-05-22T19:17:20.726Z,4.00
2023-05-22T19:20:23.701Z,4.20
2023-05-22T19:23:26.042Z,4.72
2023-05-22T19:26:28.465Z,4.50
2023-05-22T19:29:30.943Z,3.93
2023-05-22T19:32:33.335Z,4.60
2023-05-22T19:35:35.695Z,4.75
2023-05-22T19:38:37.998Z,4.50
2023-05-22T19:41:40.670Z,5.28
2023-05-22T19:44:42.919Z,4.80
2023-05-22T19:47:45.308Z,5.10
2023-05-22T19:50:47.630Z,4.68
2023-05-22T19:53:49.877Z,5.38
2023-05-22T19:56:52.185Z,5.18
2023-05-22T19:59:54.596Z,4.67
2023-05-22T20:02:57.023Z,4.85
2023-05-22T20:05:59.307Z,5.45
2023-05-22T20:09:01.927Z,5.72
2023-05-22T20:12:04.268Z,5.50
2023-05-22T20:15:10.784Z,5.53
2023-05-22T20:18:16.055Z,5.18
2023-05-22T20:21:18.384Z,5.80
2023-05-22T20:24:25.294Z,5.63
2023-05-22T20:27:27.628Z,5.10
2023-05-22T20:30:32.957Z,5.03
2023-05-22T20:33:35.213Z,5.50
2023-05-22T20:36:39.177Z,5.68
2023-05-22T20:39:46.450Z,5.57
2023-05-22T20:42:48.779Z,5.47
2023-05-22T20:45:51.155Z,5.80
2023-05-22T20:48:53.522Z,5.93
2023-05-22T20:51:55.824Z,5.90
2023-05-22T20:54:58.365Z,5.80
2023-05-22T20:58:00.893Z,5.88
2023-05-22T21:01:03.502Z,6.20
2023-05-22T21:04:05.815Z,5.85
2023-05-22T21:07:08.461Z,5.90
2023-05-22T21:10:10.918Z,6.18
2023-05-22T21:13:13.236Z,6.03
2023-05-22T21:16:15.514Z,6.10
2023-05-22T21:19:17.858Z,6.28
2023-05-22T21:22:20.141Z,6.72
2023-05-22T21:25:22.475Z,7.03
2023-05-22T21:28:24.849Z,6.47
2023-05-22T21:31:27.141Z,6.83
2023-05-22T21:34:29.421Z,6.38
2023-05-22T21:37:31.694Z,6.97
2023-05-22T21:40:33.990Z,7.07
2023-05-22T21:43:36.258Z,6.72
2023-05-22T21:46:38.726Z,6.67
2023-05-22T21:49:41.372Z,6.57
2023-05-22T21:52:44.342Z,7.07
2023-05-22T21:55:46.869Z,6.93
2023-05-22T21:58:49.209Z,6.38
2023-05-22T22:01:51.531Z,5.50
2023-05-22T22:04:53.839Z,5.80
2023-05-22T22:07:56.160Z,6.47
2023-05-22T22:10:58.453Z,5.75
2023-05-22T22:14:00.809Z,5.95
2023-05-22T22:17:05.764Z,5.80
2023-05-22T22:20:08.846Z,5.70
2023-05-22T22:23:11.235Z,6.35
2023-05-22T22:26:13.773Z,6.13
2023-05-22T22:29:16.143Z,5.65
2023-05-22T22:32:18.667Z,6.27
2023-05-22T22:35:21.176Z,5.97
2023-05-22T22:38:23.475Z,6.18
2023-05-22T22:41:26.150Z,6.25
2023-05-22T22:44:28.463Z,6.13
2023-05-22T22:47:30.742Z,6.67
2023-05-22T22:50:33.079Z,6.20
2023-05-22T22:53:36.370Z,5.97
2023-05-22T22:56:38.735Z,6.55
2023-05-22T22:59:41.158Z,6.03
2023-05-22T23:02:43.428Z,6.33
2023-05-22T23:05:45.957Z,6.47
2023-05-22T23:08:48.259Z,6.82
2023-05-22T23:11:50.552Z,6.28
2023-05-22T23:14:52.826Z,6.93
2023-05-22T23:17:55.116Z,6.63
2023-05-22T23:20:57.420Z,6.60
2023-05-22T23:24:00.669Z,6.65
2023-05-22T23:27:02.913Z,6.43
2023-05-22T23:30:05.530Z,6.72
2023-05-22T23:33:08.311Z,7.10
2023-05-22T23:36:10.710Z,7.03
2023-05-22T23:39:13.153Z,6.57
2023-05-22T23:42:16.942Z,6.90
2023-05-22T23:45:19.173Z,7.57
2023-05-22T23:48:21.667Z,7.40
2023-05-22T23:51:24.139Z,7.18
2023-05-22T23:54:26.498Z,7.50
2023-05-22T23:57:28.759Z,7.13
